sensor_id;sensor_type;location;lat;lon;timestamp;P1;durP1;ratioP1;P2;durP2;ratioP2
17650;SDS011;26663;59.302;18.082;2023-04-25T00:00:03;3.00;;;2.90;;
17650;SDS011;26663;59.302;18.082;2023-04-25T00:03:13;3.07;;;2.97;;
17650;SDS011;26663;59.302;18.082;2023-04-25T00:06:18;3.03;;;2.83;;
17650;SDS011;26663;59.302;18.082;2023-04-25T00:09:25;2.80;;;2.70;;
17650;SDS011;26663;59.302;18.082;2023-04-25T00:12:31;2.77;;;2.77;;
17650;SDS011;26663;59.302;18.082;2023-04-25T00:15:36;2.87;;;2.77;;
17650;SDS011;26663;59.302;18.082;2023-04-25T00:18:44;3.17;;;3.07;;
17650;SDS011;26663;59.302;18.082;2023-04-25T00:21:53;3.13;;;3.00;;
17650;SDS011;26663;59.302;18.082;2023-04-25T00:25:00;3.83;;;3.57;;
17650;SDS011;26663;59.302;18.082;2023-04-25T00:28:07;2.90;;;2.80;;
17650;SDS011;26663;59.302;18.082;2023-04-25T00:31:13;2.80;;;2.70;;
17650;SDS011;26663;59.302;18.082;2023-04-25T00:34:18;3.30;;;3.10;;
17650;SDS011;26663;59.302;18.082;2023-04-25T00:37:23;3.00;;;2.80;;
17650;SDS011;26663;59.302;18.082;2023-04-25T00:40:30;3.00;;;2.90;;
17650;SDS011;26663;59.302;18.082;2023-04-25T00:43:36;3.00;;;2.80;;
17650;SDS011;26663;59.302;18.082;2023-04-25T00:46:41;2.53;;;2.43;;
17650;SDS011;26663;59.302;18.082;2023-04-25T00:49:47;2.60;;;2.40;;
17650;SDS011;26663;59.302;18.082;2023-04-25T00:52:52;2.80;;;2.60;;
17650;SDS011;26663;59.302;18.082;2023-04-25T00:55:59;2.10;;;2.10;;
17650;SDS011;26663;59.302;18.082;2023-04-25T00:59:04;2.73;;;2.63;;
17650;SDS011;26663;59.302;18.082;2023-04-25T01:02:10;2.60;;;2.43;;
17650;SDS011;26663;59.302;18.082;2023-04-25T01:05:15;2.00;;;2.00;;
17650;SDS011;26663;59.302;18.082;2023-04-25T01:08:21;2.43;;;2.40;;
17650;SDS011;26663;59.302;18.082;2023-04-25T01:11:30;2.13;;;2.07;;
17650;SDS011;26663;59.302;18.082;2023-04-25T01:14:35;2.27;;;2.17;;
17650;SDS011;26663;59.302;18.082;2023-04-25T01:17:40;2.43;;;2.00;;
17650;SDS011;26663;59.302;18.082;2023-04-25T01:20:46;2.63;;;2.43;;
17650;SDS011;26663;59.302;18.082;2023-04-25T01:23:54;2.50;;;2.30;;
17650;SDS011;26663;59.302;18.082;2023-04-25T01:27:00;3.40;;;2.00;;
17650;SDS011;26663;59.302;18.082;2023-04-25T01:30:06;2.20;;;2.07;;
17650;SDS011;26663;59.302;18.082;2023-04-25T01:33:13;2.40;;;2.30;;
17650;SDS011;26663;59.302;18.082;2023-04-25T01:36:19;2.23;;;2.20;;
17650;SDS011;26663;59.302;18.082;2023-04-25T01:39:26;2.23;;;2.03;;
17650;SDS011;26663;59.302;18.082;2023-04-25T01:42:31;1.83;;;1.83;;
17650;SDS011;26663;59.302;18.082;2023-04-25T01:45:37;1.70;;;1.70;;
17650;SDS011;26663;59.302;18.082;2023-04-25T01:48:45;1.80;;;1.53;;
17650;SDS011;26663;59.302;18.082;2023-04-25T01:51:50;2.10;;;2.10;;
17650;SDS011;26663;59.302;18.082;2023-04-25T01:54:57;2.00;;;2.00;;
17650;SDS011;26663;59.302;18.082;2023-04-25T01:58:08;1.93;;;1.93;;
17650;SDS011;26663;59.302;18.082;2023-04-25T02:01:35;1.83;;;1.83;;
17650;SDS011;26663;59.302;18.082;2023-04-25T02:04:55;1.63;;;1.63;;
17650;SDS011;26663;59.302;18.082;2023-04-25T02:08:02;1.47;;;1.47;;
17650;SDS011;26663;59.302;18.082;2023-04-25T02:11:11;1.37;;;1.37;;
17650;SDS011;26663;59.302;18.082;2023-04-25T02:14:22;1.27;;;1.27;;
17650;SDS011;26663;59.302;18.082;2023-04-25T02:17:38;1.37;;;1.37;;
17650;SDS011;26663;59.302;18.082;2023-04-25T02:20:43;1.40;;;1.40;;
17650;SDS011;26663;59.302;18.082;2023-04-25T02:23:48;1.20;;;1.20;;
17650;SDS011;26663;59.302;18.082;2023-04-25T02:26:56;1.40;;;1.40;;
17650;SDS011;26663;59.302;18.082;2023-04-25T02:30:02;1.40;;;1.30;;
17650;SDS011;26663;59.302;18.082;2023-04-25T02:33:09;1.50;;;1.50;;
17650;SDS011;26663;59.302;18.082;2023-04-25T02:36:14;1.57;;;1.50;;
17650;SDS011;26663;59.302;18.082;2023-04-25T02:39:19;1.13;;;1.13;;
17650;SDS011;26663;59.302;18.082;2023-04-25T02:42:26;1.20;;;1.20;;
17650;SDS011;26663;59.302;18.082;2023-04-25T02:45:32;1.30;;;1.30;;
17650;SDS011;26663;59.302;18.082;2023-04-25T02:48:37;1.40;;;1.30;;
17650;SDS011;26663;59.302;18.082;2023-04-25T02:51:42;1.20;;;1.20;;
17650;SDS011;26663;59.302;18.082;2023-04-25T02:54:48;1.07;;;1.07;;
17650;SDS011;26663;59.302;18.082;2023-04-25T02:57:54;1.20;;;1.20;;
17650;SDS011;26663;59.302;18.082;2023-04-25T03:01:11;1.20;;;1.20;;
17650;SDS011;26663;59.302;18.082;2023-04-25T03:04:16;1.20;;;1.20;;
17650;SDS011;26663;59.302;18.082;2023-04-25T03:07:23;1.40;;;1.40;;
17650;SDS011;26663;59.302;18.082;2023-04-25T03:10:28;1.10;;;1.10;;
17650;SDS011;26663;59.302;18.082;2023-04-25T03:13:39;1.30;;;1.30;;
17650;SDS011;26663;59.302;18.082;2023-04-25T03:16:46;1.10;;;1.10;;
17650;SDS011;26663;59.302;18.082;2023-04-25T03:19:52;1.20;;;1.20;;
17650;SDS011;26663;59.302;18.082;2023-04-25T03:22:57;1.30;;;1.30;;
17650;SDS011;26663;59.302;18.082;2023-04-25T03:26:04;1.10;;;1.10;;
17650;SDS011;26663;59.302;18.082;2023-04-25T03:29:11;1.23;;;1.23;;
17650;SDS011;26663;59.302;18.082;2023-04-25T03:32:17;1.10;;;1.10;;
17650;SDS011;26663;59.302;18.082;2023-04-25T03:35:23;1.10;;;1.10;;
17650;SDS011;26663;59.302;18.082;2023-04-25T03:38:29;1.10;;;1.10;;
17650;SDS011;26663;59.302;18.082;2023-04-25T03:41:35;1.30;;;1.30;;
17650;SDS011;26663;59.302;18.082;2023-04-25T03:44:47;1.20;;;1.20;;
17650;SDS011;26663;59.302;18.082;2023-04-25T03:47:53;1.20;;;1.20;;
17650;SDS011;26663;59.302;18.082;2023-04-25T03:50:58;1.20;;;1.20;;
17650;SDS011;26663;59.302;18.082;2023-04-25T03:54:05;1.37;;;1.37;;
17650;SDS011;26663;59.302;18.082;2023-04-25T03:57:28;1.30;;;1.30;;
17650;SDS011;26663;59.302;18.082;2023-04-25T04:00:35;1.17;;;1.17;;
17650;SDS011;26663;59.302;18.082;2023-04-25T04:03:40;1.40;;;1.40;;
17650;SDS011;26663;59.302;18.082;2023-04-25T04:06:46;1.50;;;1.50;;
17650;SDS011;26663;59.302;18.082;2023-04-25T04:09:58;1.30;;;1.30;;
17650;SDS011;26663;59.302;18.082;2023-04-25T04:13:12;2.00;;;2.00;;
17650;SDS011;26663;59.302;18.082;2023-04-25T04:16:18;2.87;;;1.50;;
17650;SDS011;26663;59.302;18.082;2023-04-25T04:19:25;1.60;;;1.60;;
17650;SDS011;26663;59.302;18.082;2023-04-25T04:22:59;2.03;;;1.70;;
17650;SDS011;26663;59.302;18.082;2023-04-25T04:26:05;1.70;;;1.70;;
17650;SDS011;26663;59.302;18.082;2023-04-25T04:29:46;1.70;;;1.70;;
17650;SDS011;26663;59.302;18.082;2023-04-25T04:33:01;1.90;;;1.90;;
17650;SDS011;26663;59.302;18.082;2023-04-25T04:36:06;1.93;;;1.93;;
17650;SDS011;26663;59.302;18.082;2023-04-25T04:39:13;1.90;;;1.90;;
17650;SDS011;26663;59.302;18.082;2023-04-25T04:42:30;2.10;;;2.10;;
17650;SDS011;26663;59.302;18.082;2023-04-25T04:46:02;2.23;;;1.90;;
17650;SDS011;26663;59.302;18.082;2023-04-25T04:49:09;2.00;;;2.00;;
17650;SDS011;26663;59.302;18.082;2023-04-25T04:52:40;2.27;;;2.17;;
17650;SDS011;26663;59.302;18.082;2023-04-25T04:56:11;2.30;;;2.30;;
17650;SDS011;26663;59.302;18.082;2023-04-25T04:59:30;3.90;;;2.50;;
17650;SDS011;26663;59.302;18.082;2023-04-25T05:02:37;2.30;;;2.20;;
17650;SDS011;26663;59.302;18.082;2023-04-25T05:06:05;2.43;;;2.20;;
17650;SDS011;26663;59.302;18.082;2023-04-25T05:09:46;3.37;;;2.40;;
17650;SDS011;26663;59.302;18.082;2023-04-25T05:13:18;2.67;;;2.47;;
17650;SDS011;26663;59.302;18.082;2023-04-25T05:16:42;2.93;;;2.73;;
17650;SDS011;26663;59.302;18.082;2023-04-25T05:20:25;2.90;;;2.80;;
17650;SDS011;26663;59.302;18.082;2023-04-25T05:23:51;3.13;;;3.03;;
17650;SDS011;26663;59.302;18.082;2023-04-25T05:27:16;3.37;;;3.10;;
17650;SDS011;26663;59.302;18.082;2023-04-25T05:30:41;3.00;;;2.83;;
17650;SDS011;26663;59.302;18.082;2023-04-25T05:33:51;2.90;;;2.70;;
17650;SDS011;26663;59.302;18.082;2023-04-25T05:36:57;3.00;;;2.80;;
17650;SDS011;26663;59.302;18.082;2023-04-25T05:40:06;2.90;;;2.60;;
17650;SDS011;26663;59.302;18.082;2023-04-25T05:43:21;5.13;;;2.80;;
17650;SDS011;26663;59.302;18.082;2023-04-25T05:46:35;3.20;;;3.10;;
17650;SDS011;26663;59.302;18.082;2023-04-25T05:50:09;3.50;;;2.87;;
17650;SDS011;26663;59.302;18.082;2023-04-25T05:53:35;2.40;;;2.20;;
17650;SDS011;26663;59.302;18.082;2023-04-25T05:56:42;2.30;;;2.30;;
17650;SDS011;26663;59.302;18.082;2023-04-25T05:59:47;2.20;;;2.17;;
17650;SDS011;26663;59.302;18.082;2023-04-25T06:02:52;2.17;;;2.07;;
17650;SDS011;26663;59.302;18.082;2023-04-25T06:05:59;2.17;;;2.10;;
17650;SDS011;26663;59.302;18.082;2023-04-25T06:09:05;2.40;;;2.30;;
17650;SDS011;26663;59.302;18.082;2023-04-25T06:12:11;2.40;;;2.30;;
17650;SDS011;26663;59.302;18.082;2023-04-25T06:15:16;2.27;;;2.27;;
17650;SDS011;26663;59.302;18.082;2023-04-25T06:18:25;2.10;;;2.10;;
17650;SDS011;26663;59.302;18.082;2023-04-25T06:21:30;2.10;;;2.00;;
17650;SDS011;26663;59.302;18.082;2023-04-25T06:24:35;2.10;;;2.00;;
17650;SDS011;26663;59.302;18.082;2023-04-25T06:27:42;2.40;;;2.40;;
17650;SDS011;26663;59.302;18.082;2023-04-25T06:30:48;2.17;;;2.07;;
17650;SDS011;26663;59.302;18.082;2023-04-25T06:33:54;2.00;;;2.00;;
17650;SDS011;26663;59.302;18.082;2023-04-25T06:37:01;2.00;;;2.00;;
17650;SDS011;26663;59.302;18.082;2023-04-25T06:40:08;1.83;;;1.83;;
17650;SDS011;26663;59.302;18.082;2023-04-25T06:43:15;8.37;;;2.53;;
17650;SDS011;26663;59.302;18.082;2023-04-25T06:46:39;5.00;;;2.40;;
17650;SDS011;26663;59.302;18.082;2023-04-25T06:49:44;2.20;;;2.10;;
17650;SDS011;26663;59.302;18.082;2023-04-25T06:52:50;3.70;;;2.27;;
17650;SDS011;26663;59.302;18.082;2023-04-25T06:55:56;2.30;;;2.20;;
17650;SDS011;26663;59.302;18.082;2023-04-25T06:59:11;2.43;;;2.40;;
17650;SDS011;26663;59.302;18.082;2023-04-25T07:02:18;2.37;;;2.27;;
17650;SDS011;26663;59.302;18.082;2023-04-25T07:05:28;2.40;;;2.30;;
17650;SDS011;26663;59.302;18.082;2023-04-25T07:08:33;2.40;;;2.40;;
17650;SDS011;26663;59.302;18.082;2023-04-25T07:11:38;1.97;;;1.97;;
17650;SDS011;26663;59.302;18.082;2023-04-25T07:14:45;2.70;;;2.50;;
17650;SDS011;26663;59.302;18.082;2023-04-25T07:17:50;2.30;;;2.30;;
17650;SDS011;26663;59.302;18.082;2023-04-25T07:20:55;3.73;;;2.40;;
17650;SDS011;26663;59.302;18.082;2023-04-25T07:24:01;2.60;;;2.50;;
17650;SDS011;26663;59.302;18.082;2023-04-25T07:27:10;2.70;;;2.60;;
17650;SDS011;26663;59.302;18.082;2023-04-25T07:30:28;3.07;;;2.63;;
17650;SDS011;26663;59.302;18.082;2023-04-25T07:33:34;2.80;;;2.70;;
17650;SDS011;26663;59.302;18.082;2023-04-25T07:36:39;3.20;;;2.93;;
17650;SDS011;26663;59.302;18.082;2023-04-25T07:39:44;3.10;;;2.90;;
17650;SDS011;26663;59.302;18.082;2023-04-25T07:42:49;3.00;;;2.80;;
17650;SDS011;26663;59.302;18.082;2023-04-25T07:46:04;3.50;;;2.60;;
17650;SDS011;26663;59.302;18.082;2023-04-25T07:49:10;3.47;;;3.17;;
17650;SDS011;26663;59.302;18.082;2023-04-25T07:52:18;4.22;;;3.30;;
17650;SDS011;26663;59.302;18.082;2023-04-25T07:55:29;16.27;;;3.60;;
17650;SDS011;26663;59.302;18.082;2023-04-25T07:58:43;3.63;;;3.10;;
17650;SDS011;26663;59.302;18.082;2023-04-25T08:01:51;3.70;;;3.50;;
17650;SDS011;26663;59.302;18.082;2023-04-25T08:04:57;3.83;;;3.47;;
17650;SDS011;26663;59.302;18.082;2023-04-25T08:08:03;3.93;;;3.57;;
17650;SDS011;26663;59.302;18.082;2023-04-25T08:11:09;3.75;;;3.60;;
17650;SDS011;26663;59.302;18.082;2023-04-25T08:14:15;3.10;;;3.00;;
17650;SDS011;26663;59.302;18.082;2023-04-25T08:17:22;3.63;;;3.43;;
17650;SDS011;26663;59.302;18.082;2023-04-25T08:20:27;3.33;;;3.23;;
17650;SDS011;26663;59.302;18.082;2023-04-25T08:23:35;3.85;;;3.55;;
17650;SDS011;26663;59.302;18.082;2023-04-25T08:26:51;4.10;;;3.90;;
17650;SDS011;26663;59.302;18.082;2023-04-25T08:29:59;4.20;;;3.78;;
17650;SDS011;26663;59.302;18.082;2023-04-25T08:33:07;4.28;;;3.85;;
17650;SDS011;26663;59.302;18.082;2023-04-25T08:36:37;4.53;;;4.10;;
17650;SDS011;26663;59.302;18.082;2023-04-25T08:40:01;4.60;;;4.30;;
17650;SDS011;26663;59.302;18.082;2023-04-25T08:43:20;4.40;;;4.00;;
17650;SDS011;26663;59.302;18.082;2023-04-25T08:46:25;5.43;;;3.80;;
17650;SDS011;26663;59.302;18.082;2023-04-25T08:50:02;6.28;;;4.93;;
17650;SDS011;26663;59.302;18.082;2023-04-25T08:53:11;6.28;;;5.47;;
17650;SDS011;26663;59.302;18.082;2023-04-25T08:56:22;9.68;;;6.32;;
17650;SDS011;26663;59.302;18.082;2023-04-25T08:59:27;8.33;;;6.50;;
17650;SDS011;26663;59.302;18.082;2023-04-25T09:02:33;9.33;;;7.33;;
17650;SDS011;26663;59.302;18.082;2023-04-25T09:05:41;12.10;;;8.43;;
17650;SDS011;26663;59.302;18.082;2023-04-25T09:08:50;10.77;;;7.87;;
17650;SDS011;26663;59.302;18.082;2023-04-25T09:11:56;15.63;;;8.55;;
17650;SDS011;26663;59.302;18.082;2023-04-25T09:15:06;13.43;;;7.78;;
17650;SDS011;26663;59.302;18.082;2023-04-25T09:18:32;7.85;;;6.20;;
17650;SDS011;26663;59.302;18.082;2023-04-25T09:21:40;6.70;;;5.95;;
17650;SDS011;26663;59.302;18.082;2023-04-25T09:24:45;7.30;;;5.07;;
17650;SDS011;26663;59.302;18.082;2023-04-25T09:27:52;5.70;;;5.30;;
17650;SDS011;26663;59.302;18.082;2023-04-25T09:31:03;7.72;;;5.68;;
17650;SDS011;26663;59.302;18.082;2023-04-25T09:34:15;7.25;;;5.95;;
17650;SDS011;26663;59.302;18.082;2023-04-25T09:37:29;5.72;;;5.32;;
17650;SDS011;26663;59.302;18.082;2023-04-25T09:40:41;5.20;;;4.80;;
17650;SDS011;26663;59.302;18.082;2023-04-25T09:43:57;6.95;;;6.28;;
17650;SDS011;26663;59.302;18.082;2023-04-25T09:47:11;7.15;;;5.88;;
17650;SDS011;26663;59.302;18.082;2023-04-25T09:50:18;6.90;;;6.20;;
17650;SDS011;26663;59.302;18.082;2023-04-25T09:53:38;7.05;;;6.32;;
17650;SDS011;26663;59.302;18.082;2023-04-25T09:56:53;8.60;;;6.05;;
17650;SDS011;26663;59.302;18.082;2023-04-25T09:59:58;6.82;;;6.18;;
17650;SDS011;26663;59.302;18.082;2023-04-25T10:03:16;8.23;;;6.82;;
17650;SDS011;26663;59.302;18.082;2023-04-25T10:06:45;12.60;;;6.40;;
17650;SDS011;26663;59.302;18.082;2023-04-25T10:09:56;11.60;;;6.38;;
17650;SDS011;26663;59.302;18.082;2023-04-25T10:13:04;8.43;;;6.05;;
17650;SDS011;26663;59.302;18.082;2023-04-25T10:16:10;6.07;;;5.47;;
17650;SDS011;26663;59.302;18.082;2023-04-25T10:19:16;6.43;;;5.82;;
17650;SDS011;26663;59.302;18.082;2023-04-25T10:22:23;6.80;;;5.75;;
17650;SDS011;26663;59.302;18.082;2023-04-25T10:25:38;7.80;;;5.88;;
17650;SDS011;26663;59.302;18.082;2023-04-25T10:29:40;5.95;;;5.32;;
17650;SDS011;26663;59.302;18.082;2023-04-25T10:32:47;6.28;;;5.53;;
17650;SDS011;26663;59.302;18.082;2023-04-25T10:35:53;6.68;;;6.07;;
17650;SDS011;26663;59.302;18.082;2023-04-25T10:39:03;6.72;;;5.60;;
17650;SDS011;26663;59.302;18.082;2023-04-25T10:42:12;5.30;;;4.90;;
17650;SDS011;26663;59.302;18.082;2023-04-25T10:45:18;5.93;;;5.28;;
17650;SDS011;26663;59.302;18.082;2023-04-25T10:48:26;5.45;;;4.95;;
17650;SDS011;26663;59.302;18.082;2023-04-25T10:51:32;5.45;;;4.95;;
17650;SDS011;26663;59.302;18.082;2023-04-25T10:54:58;7.35;;;5.10;;
17650;SDS011;26663;59.302;18.082;2023-04-25T10:58:05;7.75;;;5.00;;
17650;SDS011;26663;59.302;18.082;2023-04-25T11:01:11;7.45;;;4.68;;
17650;SDS011;26663;59.302;18.082;2023-04-25T11:04:20;4.57;;;4.28;;
17650;SDS011;26663;59.302;18.082;2023-04-25T11:07:29;7.05;;;4.90;;
17650;SDS011;26663;59.302;18.082;2023-04-25T11:10:39;5.50;;;4.65;;
17650;SDS011;26663;59.302;18.082;2023-04-25T11:13:48;7.90;;;4.70;;
17650;SDS011;26663;59.302;18.082;2023-04-25T11:16:53;5.22;;;4.82;;
17650;SDS011;26663;59.302;18.082;2023-04-25T11:20:02;13.52;;;5.65;;
17650;SDS011;26663;59.302;18.082;2023-04-25T11:23:11;5.13;;;4.82;;
17650;SDS011;26663;59.302;18.082;2023-04-25T11:26:18;5.50;;;5.20;;
17650;SDS011;26663;59.302;18.082;2023-04-25T11:29:25;5.68;;;5.22;;
17650;SDS011;26663;59.302;18.082;2023-04-25T11:32:31;5.35;;;5.00;;
17650;SDS011;26663;59.302;18.082;2023-04-25T11:35:40;9.80;;;5.30;;
17650;SDS011;26663;59.302;18.082;2023-04-25T11:38:45;13.10;;;5.35;;
17650;SDS011;26663;59.302;18.082;2023-04-25T11:41:50;6.32;;;4.97;;
17650;SDS011;26663;59.302;18.082;2023-04-25T11:44:57;5.47;;;5.00;;
17650;SDS011;26663;59.302;18.082;2023-04-25T11:48:03;5.35;;;4.85;;
17650;SDS011;26663;59.302;18.082;2023-04-25T11:51:09;4.72;;;4.30;;
17650;SDS011;26663;59.302;18.082;2023-04-25T11:54:14;5.43;;;4.70;;
17650;SDS011;26663;59.302;18.082;2023-04-25T11:57:20;8.52;;;4.53;;
17650;SDS011;26663;59.302;18.082;2023-04-25T12:00:26;4.80;;;4.38;;
17650;SDS011;26663;59.302;18.082;2023-04-25T12:03:31;4.50;;;4.15;;
17650;SDS011;26663;59.302;18.082;2023-04-25T12:06:38;4.40;;;4.10;;
17650;SDS011;26663;59.302;18.082;2023-04-25T12:09:44;6.10;;;4.18;;
17650;SDS011;26663;59.302;18.082;2023-04-25T12:12:56;5.05;;;4.75;;
17650;SDS011;26663;59.302;18.082;2023-04-25T12:16:03;6.30;;;4.63;;
17650;SDS011;26663;59.302;18.082;2023-04-25T12:19:13;4.93;;;4.53;;
17650;SDS011;26663;59.302;18.082;2023-04-25T12:22:19;8.32;;;4.40;;
17650;SDS011;26663;59.302;18.082;2023-04-25T12:25:34;5.13;;;4.82;;
17650;SDS011;26663;59.302;18.082;2023-04-25T12:28:44;4.55;;;4.15;;
17650;SDS011;26663;59.302;18.082;2023-04-25T12:31:53;4.70;;;4.40;;
17650;SDS011;26663;59.302;18.082;2023-04-25T12:34:58;7.35;;;5.00;;
17650;SDS011;26663;59.302;18.082;2023-04-25T12:38:03;4.22;;;4.03;;
17650;SDS011;26663;59.302;18.082;2023-04-25T12:41:11;6.13;;;3.85;;
17650;SDS011;26663;59.302;18.082;2023-04-25T12:44:17;4.63;;;4.20;;
17650;SDS011;26663;59.302;18.082;2023-04-25T12:47:23;4.47;;;4.28;;
17650;SDS011;26663;59.302;18.082;2023-04-25T12:50:28;7.38;;;4.38;;
17650;SDS011;26663;59.302;18.082;2023-04-25T12:53:34;4.50;;;4.30;;
17650;SDS011;26663;59.302;18.082;2023-04-25T12:56:40;4.63;;;4.28;;
17650;SDS011;26663;59.302;18.082;2023-04-25T12:59:46;4.90;;;4.50;;
17650;SDS011;26663;59.302;18.082;2023-04-25T13:02:52;5.10;;;4.45;;
17650;SDS011;26663;59.302;18.082;2023-04-25T13:05:58;4.72;;;4.32;;
17650;SDS011;26663;59.302;18.082;2023-04-25T13:09:03;4.95;;;4.15;;
17650;SDS011;26663;59.302;18.082;2023-04-25T13:12:11;7.13;;;5.53;;
17650;SDS011;26663;59.302;18.082;2023-04-25T13:15:16;7.75;;;5.47;;
17650;SDS011;26663;59.302;18.082;2023-04-25T13:18:23;5.63;;;3.88;;
17650;SDS011;26663;59.302;18.082;2023-04-25T13:21:29;8.30;;;4.50;;
17650;SDS011;26663;59.302;18.082;2023-04-25T13:24:35;6.82;;;4.50;;
17650;SDS011;26663;59.302;18.082;2023-04-25T13:27:40;5.28;;;4.28;;
17650;SDS011;26663;59.302;18.082;2023-04-25T13:30:46;8.25;;;4.55;;
17650;SDS011;26663;59.302;18.082;2023-04-25T13:33:53;6.45;;;4.30;;
17650;SDS011;26663;59.302;18.082;2023-04-25T13:36:58;8.75;;;5.45;;
17650;SDS011;26663;59.302;18.082;2023-04-25T13:40:04;8.80;;;4.72;;
17650;SDS011;26663;59.302;18.082;2023-04-25T13:43:12;4.85;;;4.45;;
17650;SDS011;26663;59.302;18.082;2023-04-25T13:46:17;5.65;;;4.90;;
17650;SDS011;26663;59.302;18.082;2023-04-25T13:49:43;5.80;;;4.57;;
17650;SDS011;26663;59.302;18.082;2023-04-25T13:52:48;5.07;;;4.40;;
17650;SDS011;26663;59.302;18.082;2023-04-25T13:55:54;6.13;;;4.45;;
17650;SDS011;26663;59.302;18.082;2023-04-25T13:58:59;4.85;;;4.55;;
17650;SDS011;26663;59.302;18.082;2023-04-25T14:02:04;7.82;;;4.40;;
17650;SDS011;26663;59.302;18.082;2023-04-25T14:05:11;4.78;;;4.57;;
17650;SDS011;26663;59.302;18.082;2023-04-25T14:08:16;6.10;;;5.00;;
17650;SDS011;26663;59.302;18.082;2023-04-25T14:11:22;5.47;;;5.07;;
17650;SDS011;26663;59.302;18.082;2023-04-25T14:14:28;5.20;;;4.47;;
17650;SDS011;26663;59.302;18.082;2023-04-25T14:17:33;5.35;;;4.60;;
17650;SDS011;26663;59.302;18.082;2023-04-25T14:20:40;5.32;;;4.82;;
17650;SDS011;26663;59.302;18.082;2023-04-25T14:23:45;4.85;;;4.55;;
17650;SDS011;26663;59.302;18.082;2023-04-25T14:26:51;5.63;;;5.18;;
17650;SDS011;26663;59.302;18.082;2023-04-25T14:29:56;7.72;;;4.72;;
17650;SDS011;26663;59.302;18.082;2023-04-25T14:33:01;13.10;;;5.45;;
17650;SDS011;26663;59.302;18.082;2023-04-25T14:36:09;6.07;;;5.57;;
17650;SDS011;26663;59.302;18.082;2023-04-25T14:39:14;5.18;;;4.75;;
17650;SDS011;26663;59.302;18.082;2023-04-25T14:42:20;6.13;;;4.63;;
17650;SDS011;26663;59.302;18.082;2023-04-25T14:45:25;5.45;;;4.95;;
17650;SDS011;26663;59.302;18.082;2023-04-25T14:48:30;4.07;;;3.88;;
17650;SDS011;26663;59.302;18.082;2023-04-25T14:51:37;4.70;;;3.85;;
17650;SDS011;26663;59.302;18.082;2023-04-25T14:54:42;6.47;;;3.80;;
17650;SDS011;26663;59.302;18.082;2023-04-25T14:57:47;5.28;;;3.83;;
17650;SDS011;26663;59.302;18.082;2023-04-25T15:00:54;4.40;;;4.05;;
17650;SDS011;26663;59.302;18.082;2023-04-25T15:03:59;3.60;;;3.40;;
17650;SDS011;26663;59.302;18.082;2023-04-25T15:07:08;6.03;;;3.65;;
17650;SDS011;26663;59.302;18.082;2023-04-25T15:10:13;3.58;;;3.28;;
17650;SDS011;26663;59.302;18.082;2023-04-25T15:13:19;5.75;;;3.20;;
17650;SDS011;26663;59.302;18.082;2023-04-25T15:16:24;3.95;;;2.97;;
17650;SDS011;26663;59.302;18.082;2023-04-25T15:19:29;4.70;;;2.60;;
17650;SDS011;26663;59.302;18.082;2023-04-25T15:22:36;5.53;;;2.80;;
17650;SDS011;26663;59.302;18.082;2023-04-25T15:25:41;2.85;;;2.65;;
17650;SDS011;26663;59.302;18.082;2023-04-25T15:28:46;3.47;;;3.17;;
17650;SDS011;26663;59.302;18.082;2023-04-25T15:31:51;3.40;;;3.00;;
17650;SDS011;26663;59.302;18.082;2023-04-25T15:34:57;6.78;;;3.70;;
17650;SDS011;26663;59.302;18.082;2023-04-25T15:38:03;7.53;;;3.72;;
17650;SDS011;26663;59.302;18.082;2023-04-25T15:41:10;5.45;;;3.58;;
17650;SDS011;26663;59.302;18.082;2023-04-25T15:44:16;3.92;;;3.70;;
17650;SDS011;26663;59.302;18.082;2023-04-25T15:47:21;6.43;;;4.15;;
17650;SDS011;26663;59.302;18.082;2023-04-25T15:50:27;4.60;;;4.20;;
17650;SDS011;26663;59.302;18.082;2023-04-25T15:53:33;5.00;;;4.53;;
17650;SDS011;26663;59.302;18.082;2023-04-25T15:56:39;8.20;;;4.97;;
17650;SDS011;26663;59.302;18.082;2023-04-25T15:59:44;7.15;;;4.82;;
17650;SDS011;26663;59.302;18.082;2023-04-25T16:02:50;11.40;;;5.18;;
17650;SDS011;26663;59.302;18.082;2023-04-25T16:05:55;5.03;;;4.72;;
17650;SDS011;26663;59.302;18.082;2023-04-25T16:09:02;6.32;;;4.82;;
17650;SDS011;26663;59.302;18.082;2023-04-25T16:12:09;5.10;;;4.70;;
17650;SDS011;26663;59.302;18.082;2023-04-25T16:15:16;5.40;;;5.00;;
17650;SDS011;26663;59.302;18.082;2023-04-25T16:18:21;6.45;;;4.65;;
17650;SDS011;26663;59.302;18.082;2023-04-25T16:21:26;5.03;;;4.63;;
17650;SDS011;26663;59.302;18.082;2023-04-25T16:24:33;6.80;;;4.90;;
17650;SDS011;26663;59.302;18.082;2023-04-25T16:27:38;6.28;;;4.68;;
17650;SDS011;26663;59.302;18.082;2023-04-25T16:30:43;8.20;;;5.40;;
17650;SDS011;26663;59.302;18.082;2023-04-25T16:33:48;7.63;;;5.18;;
17650;SDS011;26663;59.302;18.082;2023-04-25T16:36:54;8.15;;;5.90;;
17650;SDS011;26663;59.302;18.082;2023-04-25T16:40:01;7.65;;;5.47;;
17650;SDS011;26663;59.302;18.082;2023-04-25T16:43:10;6.95;;;6.00;;
17650;SDS011;26663;59.302;18.082;2023-04-25T16:46:16;11.73;;;7.53;;
17650;SDS011;26663;59.302;18.082;2023-04-25T16:49:21;7.65;;;6.75;;
17650;SDS011;26663;59.302;18.082;2023-04-25T16:52:28;6.60;;;6.10;;
17650;SDS011;26663;59.302;18.082;2023-04-25T16:55:34;8.48;;;6.80;;
17650;SDS011;26663;59.302;18.082;2023-04-25T16:58:39;8.57;;;6.22;;
17650;SDS011;26663;59.302;18.082;2023-04-25T17:01:44;7.13;;;6.18;;
17650;SDS011;26663;59.302;18.082;2023-04-25T17:04:50;13.30;;;7.38;;
17650;SDS011;26663;59.302;18.082;2023-04-25T17:07:55;12.90;;;7.15;;
17650;SDS011;26663;59.302;18.082;2023-04-25T17:11:02;9.30;;;6.95;;
17650;SDS011;26663;59.302;18.082;2023-04-25T17:14:09;15.95;;;7.72;;
17650;SDS011;26663;59.302;18.082;2023-04-25T17:17:14;10.52;;;8.23;;
17650;SDS011;26663;59.302;18.082;2023-04-25T17:20:20;11.35;;;8.60;;
17650;SDS011;26663;59.302;18.082;2023-04-25T17:23:25;9.75;;;7.93;;
17650;SDS011;26663;59.302;18.082;2023-04-25T17:26:34;12.73;;;8.68;;
17650;SDS011;26663;59.302;18.082;2023-04-25T17:29:39;14.68;;;8.65;;
17650;SDS011;26663;59.302;18.082;2023-04-25T17:32:44;14.95;;;9.07;;
17650;SDS011;26663;59.302;18.082;2023-04-25T17:35:50;12.20;;;8.80;;
17650;SDS011;26663;59.302;18.082;2023-04-25T17:38:55;10.70;;;8.35;;
17650;SDS011;26663;59.302;18.082;2023-04-25T17:42:03;11.88;;;8.82;;
17650;SDS011;26663;59.302;18.082;2023-04-25T17:45:09;13.63;;;8.93;;
17650;SDS011;26663;59.302;18.082;2023-04-25T17:48:15;14.98;;;8.70;;
17650;SDS011;26663;59.302;18.082;2023-04-25T17:51:20;16.40;;;9.60;;
17650;SDS011;26663;59.302;18.082;2023-04-25T17:54:25;15.73;;;9.00;;
17650;SDS011;26663;59.302;18.082;2023-04-25T17:57:32;14.40;;;9.18;;
17650;SDS011;26663;59.302;18.082;2023-04-25T18:00:38;12.90;;;8.80;;
17650;SDS011;26663;59.302;18.082;2023-04-25T18:03:43;15.43;;;9.13;;
17650;SDS011;26663;59.302;18.082;2023-04-25T18:06:50;14.00;;;9.30;;
17650;SDS011;26663;59.302;18.082;2023-04-25T18:09:57;15.25;;;8.60;;
17650;SDS011;26663;59.302;18.082;2023-04-25T18:13:03;18.77;;;9.27;;
17650;SDS011;26663;59.302;18.082;2023-04-25T18:16:10;11.20;;;8.40;;
17650;SDS011;26663;59.302;18.082;2023-04-25T18:19:16;14.18;;;9.13;;
17650;SDS011;26663;59.302;18.082;2023-04-25T18:22:24;14.85;;;8.88;;
17650;SDS011;26663;59.302;18.082;2023-04-25T18:25:29;14.15;;;8.68;;
17650;SDS011;26663;59.302;18.082;2023-04-25T18:28:36;11.93;;;9.27;;
17650;SDS011;26663;59.302;18.082;2023-04-25T18:31:41;14.18;;;8.88;;
17650;SDS011;26663;59.302;18.082;2023-04-25T18:34:49;15.25;;;9.00;;
17650;SDS011;26663;59.302;18.082;2023-04-25T18:37:54;13.55;;;9.55;;